sensor_id;sensor_type;location;lat;lon;timestamp;P1;durP1;ratioP1;P2;durP2;ratioP2
36839;SDS011;24406;51.640;9.566;2024-03-06T00:03:14;55.53;;;35.30;;
36839;SDS011;24406;51.640;9.566;2024-03-06T00:08:18;53.83;;;36.33;;
36839;SDS011;24406;51.640;9.566;2024-03-06T00:13:21;52.35;;;36.45;;
36839;SDS011;24406;51.640;9.566;2024-03-06T00:18:24;56.03;;;36.05;;
36839;SDS011;24406;51.640;9.566;2024-03-06T00:23:26;49.83;;;36.03;;
36839;SDS011;24406;51.640;9.566;2024-03-06T00:28:28;55.95;;;33.85;;
36839;SDS011;24406;51.640;9.566;2024-03-06T00:33:32;56.60;;;36.78;;
36839;SDS011;24406;51.640;9.566;2024-03-06T00:38:34;54.33;;;36.05;;
36839;SDS011;24406;51.640;9.566;2024-03-06T00:43:37;54.58;;;36.30;;
36839;SDS011;24406;51.640;9.566;2024-03-06T00:48:44;58.28;;;38.53;;
36839;SDS011;24406;51.640;9.566;2024-03-06T00:53:47;60.42;;;37.05;;
36839;SDS011;24406;51.640;9.566;2024-03-06T00:58:53;57.40;;;37.67;;
36839;SDS011;24406;51.640;9.566;2024-03-06T01:03:58;60.38;;;35.78;;
36839;SDS011;24406;51.640;9.566;2024-03-06T01:09:01;51.70;;;35.33;;
36839;SDS011;24406;51.640;9.566;2024-03-06T01:14:06;50.28;;;34.55;;
36839;SDS011;24406;51.640;9.566;2024-03-06T01:19:10;49.78;;;35.10;;
36839;SDS011;24406;51.640;9.566;2024-03-06T01:24:12;49.90;;;34.13;;
36839;SDS011;24406;51.640;9.566;2024-03-06T01:29:15;58.75;;;36.47;;
36839;SDS011;24406;51.640;9.566;2024-03-06T01:34:20;49.95;;;35.92;;
36839;SDS011;24406;51.640;9.566;2024-03-06T01:39:22;51.55;;;34.20;;
36839;SDS011;24406;51.640;9.566;2024-03-06T01:44:24;47.50;;;33.65;;
36839;SDS011;24406;51.640;9.566;2024-03-06T01:49:28;52.20;;;35.55;;
36839;SDS011;24406;51.640;9.566;2024-03-06T01:54:34;54.78;;;36.40;;
36839;SDS011;24406;51.640;9.566;2024-03-06T01:59:36;54.97;;;36.05;;
36839;SDS011;24406;51.640;9.566;2024-03-06T02:04:43;56.40;;;34.97;;
36839;SDS011;24406;51.640;9.566;2024-03-06T02:09:54;57.78;;;37.28;;
36839;SDS011;24406;51.640;9.566;2024-03-06T02:14:58;52.00;;;35.47;;
36839;SDS011;24406;51.640;9.566;2024-03-06T02:20:06;52.20;;;35.13;;
36839;SDS011;24406;51.640;9.566;2024-03-06T02:25:16;57.35;;;35.35;;
36839;SDS011;24406;51.640;9.566;2024-03-06T02:30:21;51.95;;;35.08;;
36839;SDS011;24406;51.640;9.566;2024-03-06T02:35:23;52.78;;;34.45;;
36839;SDS011;24406;51.640;9.566;2024-03-06T02:40:27;56.40;;;36.40;;
36839;SDS011;24406;51.640;9.566;2024-03-06T02:45:29;52.88;;;36.40;;
36839;SDS011;24406;51.640;9.566;2024-03-06T02:50:31;54.03;;;37.30;;
36839;SDS011;24406;51.640;9.566;2024-03-06T02:55:34;52.15;;;35.38;;
36839;SDS011;24406;51.640;9.566;2024-03-06T03:00:39;53.55;;;36.42;;
36839;SDS011;24406;51.640;9.566;2024-03-06T03:05:41;56.95;;;35.22;;
36839;SDS011;24406;51.640;9.566;2024-03-06T03:10:45;54.88;;;35.20;;
36839;SDS011;24406;51.640;9.566;2024-03-06T03:15:47;44.25;;;33.63;;
36839;SDS011;24406;51.640;9.566;2024-03-06T03:20:49;46.80;;;33.83;;
36839;SDS011;24406;51.640;9.566;2024-03-06T03:25:53;47.15;;;32.42;;
36839;SDS011;24406;51.640;9.566;2024-03-06T03:30:55;55.40;;;35.38;;
36839;SDS011;24406;51.640;9.566;2024-03-06T03:35:57;48.50;;;33.95;;
36839;SDS011;24406;51.640;9.566;2024-03-06T03:41:00;52.80;;;35.40;;
36839;SDS011;24406;51.640;9.566;2024-03-06T03:46:04;48.72;;;34.28;;
36839;SDS011;24406;51.640;9.566;2024-03-06T03:51:11;48.55;;;34.22;;
36839;SDS011;24406;51.640;9.566;2024-03-06T03:56:16;46.67;;;34.53;;
36839;SDS011;24406;51.640;9.566;2024-03-06T04:01:21;52.55;;;33.15;;
36839;SDS011;24406;51.640;9.566;2024-03-06T04:06:23;47.35;;;33.75;;
36839;SDS011;24406;51.640;9.566;2024-03-06T04:11:28;46.38;;;33.33;;
36839;SDS011;24406;51.640;9.566;2024-03-06T04:16:34;45.20;;;33.75;;
36839;SDS011;24406;51.640;9.566;2024-03-06T04:21:40;49.03;;;33.55;;
36839;SDS011;24406;51.640;9.566;2024-03-06T04:26:47;45.72;;;32.55;;
36839;SDS011;24406;51.640;9.566;2024-03-06T04:31:49;47.05;;;34.00;;
36839;SDS011;24406;51.640;9.566;2024-03-06T04:36:51;50.25;;;34.78;;
36839;SDS011;24406;51.640;9.566;2024-03-06T04:42:02;53.92;;;35.75;;
36839;SDS011;24406;51.640;9.566;2024-03-06T04:47:06;47.28;;;32.58;;
36839;SDS011;24406;51.640;9.566;2024-03-06T04:52:08;51.80;;;34.97;;
36839;SDS011;24406;51.640;9.566;2024-03-06T04:57:12;48.47;;;34.15;;
36839;SDS011;24406;51.640;9.566;2024-03-06T05:02:14;49.08;;;32.63;;
36839;SDS011;24406;51.640;9.566;2024-03-06T05:07:17;55.80;;;36.72;;
36839;SDS011;24406;51.640;9.566;2024-03-06T05:12:20;48.63;;;33.70;;
36839;SDS011;24406;51.640;9.566;2024-03-06T05:17:23;59.08;;;36.92;;
36839;SDS011;24406;51.640;9.566;2024-03-06T05:22:26;55.47;;;37.20;;
36839;SDS011;24406;51.640;9.566;2024-03-06T05:27:31;53.13;;;36.47;;
36839;SDS011;24406;51.640;9.566;2024-03-06T05:32:34;50.42;;;34.47;;
36839;SDS011;24406;51.640;9.566;2024-03-06T05:37:36;53.40;;;36.15;;
36839;SDS011;24406;51.640;9.566;2024-03-06T05:42:42;50.47;;;36.08;;
36839;SDS011;24406;51.640;9.566;2024-03-06T05:47:57;51.00;;;35.20;;
36839;SDS011;24406;51.640;9.566;2024-03-06T05:53:50;52.85;;;34.47;;
36839;SDS011;24406;51.640;9.566;2024-03-06T06:05:21;48.88;;;33.88;;
36839;SDS011;24406;51.640;9.566;2024-03-06T06:10:56;45.38;;;32.25;;
36839;SDS011;24406;51.640;9.566;2024-03-06T06:17:47;47.28;;;33.50;;
36839;SDS011;24406;51.640;9.566;2024-03-06T06:29:38;52.47;;;33.15;;
36839;SDS011;24406;51.640;9.566;2024-03-06T06:42:09;52.90;;;33.55;;
36839;SDS011;24406;51.640;9.566;2024-03-06T06:47:16;48.45;;;34.65;;
36839;SDS011;24406;51.640;9.566;2024-03-06T06:57:28;44.22;;;31.85;;
36839;SDS011;24406;51.640;9.566;2024-03-06T07:02:50;49.72;;;33.90;;
36839;SDS011;24406;51.640;9.566;2024-03-06T07:07:59;47.85;;;31.60;;
36839;SDS011;24406;51.640;9.566;2024-03-06T07:13:05;44.90;;;32.45;;
36839;SDS011;24406;51.640;9.566;2024-03-06T07:18:08;50.67;;;32.55;;
36839;SDS011;24406;51.640;9.566;2024-03-06T07:23:10;46.10;;;31.00;;
36839;SDS011;24406;51.640;9.566;2024-03-06T07:28:11;42.55;;;31.40;;
36839;SDS011;24406;51.640;9.566;2024-03-06T07:33:14;48.33;;;33.70;;
36839;SDS011;24406;51.640;9.566;2024-03-06T07:38:16;46.70;;;31.65;;
36839;SDS011;24406;51.640;9.566;2024-03-06T07:43:18;51.28;;;34.63;;
36839;SDS011;24406;51.640;9.566;2024-03-06T07:48:21;47.90;;;32.50;;
36839;SDS011;24406;51.640;9.566;2024-03-06T07:53:22;39.70;;;29.17;;
36839;SDS011;24406;51.640;9.566;2024-03-06T07:58:24;40.17;;;28.23;;
36839;SDS011;24406;51.640;9.566;2024-03-06T08:03:27;36.65;;;28.90;;
36839;SDS011;24406;51.640;9.566;2024-03-06T08:08:29;41.50;;;28.92;;
36839;SDS011;24406;51.640;9.566;2024-03-06T08:13:30;44.15;;;30.17;;
36839;SDS011;24406;51.640;9.566;2024-03-06T08:18:34;41.28;;;29.42;;
36839;SDS011;24406;51.640;9.566;2024-03-06T08:23:36;38.08;;;28.90;;
36839;SDS011;24406;51.640;9.566;2024-03-06T08:28:38;42.75;;;28.70;;
36839;SDS011;24406;51.640;9.566;2024-03-06T08:33:41;49.50;;;29.55;;
36839;SDS011;24406;51.640;9.566;2024-03-06T08:38:44;38.92;;;28.45;;
36839;SDS011;24406;51.640;9.566;2024-03-06T08:43:46;42.20;;;28.48;;
36839;SDS011;24406;51.640;9.566;2024-03-06T08:48:49;38.20;;;28.52;;
36839;SDS011;24406;51.640;9.566;2024-03-06T08:53:51;38.25;;;27.80;;
36839;SDS011;24406;51.640;9.566;2024-03-06T08:58:52;36.13;;;26.23;;
36839;SDS011;24406;51.640;9.566;2024-03-06T09:03:56;51.47;;;27.77;;
36839;SDS011;24406;51.640;9.566;2024-03-06T09:08:57;44.20;;;30.13;;
36839;SDS011;24406;51.640;9.566;2024-03-06T09:13:59;45.03;;;28.30;;
36839;SDS011;24406;51.640;9.566;2024-03-06T09:19:02;41.85;;;27.52;;
36839;SDS011;24406;51.640;9.566;2024-03-06T09:24:04;45.20;;;27.95;;
36839;SDS011;24406;51.640;9.566;2024-03-06T09:29:06;38.25;;;26.98;;
36839;SDS011;24406;51.640;9.566;2024-03-06T09:34:09;38.05;;;25.90;;
36839;SDS011;24406;51.640;9.566;2024-03-06T09:39:12;34.88;;;26.05;;
36839;SDS011;24406;51.640;9.566;2024-03-06T09:44:16;39.05;;;28.30;;
36839;SDS011;24406;51.640;9.566;2024-03-06T09:49:19;44.72;;;26.63;;
36839;SDS011;24406;51.640;9.566;2024-03-06T09:54:21;46.53;;;30.90;;
36839;SDS011;24406;51.640;9.566;2024-03-06T09:59:24;40.28;;;26.05;;
36839;SDS011;24406;51.640;9.566;2024-03-06T10:04:28;37.03;;;28.70;;
36839;SDS011;24406;51.640;9.566;2024-03-06T10:09:31;40.17;;;25.98;;
36839;SDS011;24406;51.640;9.566;2024-03-06T10:14:33;36.10;;;25.90;;
36839;SDS011;24406;51.640;9.566;2024-03-06T10:19:36;45.60;;;27.38;;
36839;SDS011;24406;51.640;9.566;2024-03-06T10:24:38;38.97;;;28.08;;
36839;SDS011;24406;51.640;9.566;2024-03-06T10:29:40;41.20;;;28.15;;
36839;SDS011;24406;51.640;9.566;2024-03-06T10:34:44;41.90;;;27.00;;
36839;SDS011;24406;51.640;9.566;2024-03-06T10:39:46;38.53;;;26.92;;
36839;SDS011;24406;51.640;9.566;2024-03-06T10:44:51;42.17;;;29.13;;
36839;SDS011;24406;51.640;9.566;2024-03-06T10:49:55;42.65;;;27.35;;
36839;SDS011;24406;51.640;9.566;2024-03-06T10:54:58;35.72;;;26.33;;
36839;SDS011;24406;51.640;9.566;2024-03-06T11:00:00;38.00;;;26.20;;
36839;SDS011;24406;51.640;9.566;2024-03-06T11:05:04;41.38;;;26.17;;
36839;SDS011;24406;51.640;9.566;2024-03-06T11:10:07;36.53;;;25.63;;
36839;SDS011;24406;51.640;9.566;2024-03-06T11:15:16;38.45;;;24.98;;
36839;SDS011;24406;51.640;9.566;2024-03-06T11:36:20;33.65;;;25.50;;
36839;SDS011;24406;51.640;9.566;2024-03-06T11:41:22;33.72;;;24.80;;
36839;SDS011;24406;51.640;9.566;2024-03-06T11:46:40;32.47;;;23.25;;
36839;SDS011;24406;51.640;9.566;2024-03-06T11:51:44;33.50;;;22.40;;
36839;SDS011;24406;51.640;9.566;2024-03-06T11:56:47;35.30;;;23.40;;
36839;SDS011;24406;51.640;9.566;2024-03-06T12:01:48;30.55;;;22.65;;
36839;SDS011;24406;51.640;9.566;2024-03-06T12:06:51;32.22;;;22.60;;
36839;SDS011;24406;51.640;9.566;2024-03-06T12:11:55;32.58;;;22.88;;
36839;SDS011;24406;51.640;9.566;2024-03-06T12:16:57;28.20;;;23.00;;
36839;SDS011;24406;51.640;9.566;2024-03-06T12:22:00;32.33;;;23.42;;
36839;SDS011;24406;51.640;9.566;2024-03-06T12:27:04;35.38;;;23.48;;
36839;SDS011;24406;51.640;9.566;2024-03-06T12:32:15;33.67;;;23.00;;
36839;SDS011;24406;51.640;9.566;2024-03-06T12:37:19;39.10;;;24.45;;
36839;SDS011;24406;51.640;9.566;2024-03-06T12:42:20;28.27;;;23.05;;
36839;SDS011;24406;51.640;9.566;2024-03-06T12:47:24;34.63;;;23.75;;
36839;SDS011;24406;51.640;9.566;2024-03-06T12:52:27;28.20;;;22.33;;
36839;SDS011;24406;51.640;9.566;2024-03-06T12:57:30;34.67;;;23.05;;
36839;SDS011;24406;51.640;9.566;2024-03-06T13:02:33;36.05;;;25.45;;
36839;SDS011;24406;51.640;9.566;2024-03-06T13:07:36;36.88;;;25.50;;
36839;SDS011;24406;51.640;9.566;2024-03-06T13:12:38;41.33;;;26.45;;
36839;SDS011;24406;51.640;9.566;2024-03-06T13:17:40;34.03;;;26.13;;
36839;SDS011;24406;51.640;9.566;2024-03-06T13:22:42;31.67;;;24.67;;
36839;SDS011;24406;51.640;9.566;2024-03-06T13:27:51;34.78;;;25.08;;
36839;SDS011;24406;51.640;9.566;2024-03-06T13:32:54;34.30;;;25.02;;
36839;SDS011;24406;51.640;9.566;2024-03-06T13:37:57;35.28;;;25.98;;
36839;SDS011;24406;51.640;9.566;2024-03-06T13:43:05;33.25;;;26.23;;
36839;SDS011;24406;51.640;9.566;2024-03-06T13:48:13;40.65;;;26.23;;
36839;SDS011;24406;51.640;9.566;2024-03-06T13:53:20;42.58;;;28.13;;
36839;SDS011;24406;51.640;9.566;2024-03-06T13:58:22;44.22;;;24.45;;
36839;SDS011;24406;51.640;9.566;2024-03-06T14:03:39;37.42;;;27.08;;
36839;SDS011;24406;51.640;9.566;2024-03-06T14:08:42;36.78;;;26.35;;
36839;SDS011;24406;51.640;9.566;2024-03-06T14:13:53;35.03;;;27.38;;
36839;SDS011;24406;51.640;9.566;2024-03-06T14:19:00;31.60;;;25.40;;
36839;SDS011;24406;51.640;9.566;2024-03-06T14:24:04;43.55;;;26.88;;
36839;SDS011;24406;51.640;9.566;2024-03-06T14:29:06;37.35;;;28.30;;
36839;SDS011;24406;51.640;9.566;2024-03-06T14:34:12;37.78;;;28.05;;
36839;SDS011;24406;51.640;9.566;2024-03-06T14:39:15;34.45;;;26.10;;
36839;SDS011;24406;51.640;9.566;2024-03-06T14:44:26;45.50;;;28.30;;
36839;SDS011;24406;51.640;9.566;2024-03-06T14:49:27;35.05;;;26.67;;
36839;SDS011;24406;51.640;9.566;2024-03-06T14:54:33;37.97;;;27.67;;
36839;SDS011;24406;51.640;9.566;2024-03-06T14:59:36;39.38;;;27.58;;
36839;SDS011;24406;51.640;9.566;2024-03-06T15:04:38;35.45;;;26.20;;
36839;SDS011;24406;51.640;9.566;2024-03-06T15:09:42;38.63;;;27.85;;
36839;SDS011;24406;51.640;9.566;2024-03-06T15:14:46;38.15;;;28.77;;
36839;SDS011;24406;51.640;9.566;2024-03-06T15:19:48;40.05;;;28.10;;
36839;SDS011;24406;51.640;9.566;2024-03-06T15:24:53;37.60;;;28.73;;
36839;SDS011;24406;51.640;9.566;2024-03-06T15:29:58;32.80;;;26.45;;
36839;SDS011;24406;51.640;9.566;2024-03-06T15:35:00;41.72;;;28.75;;
36839;SDS011;24406;51.640;9.566;2024-03-06T15:40:07;38.58;;;27.73;;
36839;SDS011;24406;51.640;9.566;2024-03-06T15:45:12;41.80;;;27.80;;
36839;SDS011;24406;51.640;9.566;2024-03-06T15:50:14;36.30;;;26.95;;
36839;SDS011;24406;51.640;9.566;2024-03-06T15:55:17;39.67;;;27.73;;
36839;SDS011;24406;51.640;9.566;2024-03-06T16:00:18;37.22;;;27.88;;
36839;SDS011;24406;51.640;9.566;2024-03-06T16:05:20;35.28;;;26.35;;
36839;SDS011;24406;51.640;9.566;2024-03-06T16:10:23;38.47;;;28.33;;
36839;SDS011;24406;51.640;9.566;2024-03-06T16:15:24;47.95;;;32.50;;
36839;SDS011;24406;51.640;9.566;2024-03-06T16:20:26;36.95;;;25.10;;
36839;SDS011;24406;51.640;9.566;2024-03-06T16:25:28;33.95;;;25.42;;
36839;SDS011;24406;51.640;9.566;2024-03-06T16:30:30;29.88;;;22.35;;
36839;SDS011;24406;51.640;9.566;2024-03-06T16:35:32;27.55;;;21.65;;
36839;SDS011;24406;51.640;9.566;2024-03-06T16:40:35;28.20;;;21.25;;
36839;SDS011;24406;51.640;9.566;2024-03-06T16:45:37;27.98;;;22.10;;
36839;SDS011;24406;51.640;9.566;2024-03-06T16:50:38;28.33;;;22.55;;
36839;SDS011;24406;51.640;9.566;2024-03-06T16:55:43;31.80;;;23.25;;
36839;SDS011;24406;51.640;9.566;2024-03-06T17:00:45;37.22;;;27.48;;
36839;SDS011;24406;51.640;9.566;2024-03-06T17:05:46;33.78;;;24.88;;
36839;SDS011;24406;51.640;9.566;2024-03-06T17:10:49;36.08;;;24.38;;
36839;SDS011;24406;51.640;9.566;2024-03-06T17:15:51;40.30;;;27.33;;
36839;SDS011;24406;51.640;9.566;2024-03-06T17:20:54;42.25;;;27.92;;
36839;SDS011;24406;51.640;9.566;2024-03-06T17:25:57;42.22;;;25.95;;
36839;SDS011;24406;51.640;9.566;2024-03-06T17:30:59;39.67;;;26.30;;
36839;SDS011;24406;51.640;9.566;2024-03-06T17:36:00;37.10;;;27.00;;
36839;SDS011;24406;51.640;9.566;2024-03-06T17:41:03;43.58;;;28.85;;
36839;SDS011;24406;51.640;9.566;2024-03-06T17:46:05;44.08;;;28.15;;
36839;SDS011;24406;51.640;9.566;2024-03-06T17:51:06;46.13;;;26.90;;
36839;SDS011;24406;51.640;9.566;2024-03-06T17:56:09;38.78;;;26.52;;
36839;SDS011;24406;51.640;9.566;2024-03-06T18:01:11;48.33;;;32.65;;
36839;SDS011;24406;51.640;9.566;2024-03-06T18:06:12;41.40;;;29.50;;
36839;SDS011;24406;51.640;9.566;2024-03-06T18:11:16;36.53;;;27.02;;
36839;SDS011;24406;51.640;9.566;2024-03-06T18:16:17;38.78;;;28.73;;
36839;SDS011;24406;51.640;9.566;2024-03-06T18:21:19;39.63;;;26.90;;
36839;SDS011;24406;51.640;9.566;2024-03-06T18:26:22;40.97;;;30.00;;
36839;SDS011;24406;51.640;9.566;2024-03-06T18:31:23;42.13;;;28.73;;
36839;SDS011;24406;51.640;9.566;2024-03-06T18:36:25;35.53;;;27.27;;
36839;SDS011;24406;51.640;9.566;2024-03-06T18:41:27;45.28;;;30.95;;
36839;SDS011;24406;51.640;9.566;2024-03-06T18:46:29;39.55;;;28.48;;
36839;SDS011;24406;51.640;9.566;2024-03-06T18:51:32;34.30;;;25.33;;
36839;SDS011;24406;51.640;9.566;2024-03-06T18:56:36;35.35;;;27.75;;
36839;SDS011;24406;51.640;9.566;2024-03-06T19:01:38;40.92;;;27.50;;
36839;SDS011;24406;51.640;9.566;2024-03-06T19:06:40;43.10;;;27.63;;
36839;SDS011;24406;51.640;9.566;2024-03-06T19:11:43;34.33;;;25.10;;
36839;SDS011;24406;51.640;9.566;2024-03-06T19:16:44;42.65;;;24.88;;
36839;SDS011;24406;51.640;9.566;2024-03-06T19:21:47;36.47;;;24.67;;
36839;SDS011;24406;51.640;9.566;2024-03-06T19:26:52;39.53;;;27.65;;
36839;SDS011;24406;51.640;9.566;2024-03-06T19:31:53;38.97;;;25.73;;
36839;SDS011;24406;51.640;9.566;2024-03-06T19:36:55;31.50;;;23.35;;
36839;SDS011;24406;51.640;9.566;2024-03-06T19:41:59;34.90;;;22.13;;
36839;SDS011;24406;51.640;9.566;2024-03-06T19:47:05;32.20;;;23.25;;
36839;SDS011;24406;51.640;9.566;2024-03-06T19:52:09;29.45;;;22.77;;
36839;SDS011;24406;51.640;9.566;2024-03-06T19:57:13;32.83;;;22.27;;
36839;SDS011;24406;51.640;9.566;2024-03-06T20:02:15;31.33;;;23.02;;
36839;SDS011;24406;51.640;9.566;2024-03-06T20:07:20;36.38;;;23.35;;
36839;SDS011;24406;51.640;9.566;2024-03-06T20:12:23;30.33;;;23.33;;
36839;SDS011;24406;51.640;9.566;2024-03-06T20:17:24;31.00;;;21.98;;
36839;SDS011;24406;51.640;9.566;2024-03-06T20:22:35;27.88;;;21.55;;
36839;SDS011;24406;51.640;9.566;2024-03-06T20:27:39;31.10;;;23.38;;
36839;SDS011;24406;51.640;9.566;2024-03-06T20:32:51;32.90;;;23.40;;
36839;SDS011;24406;51.640;9.566;2024-03-06T20:37:55;28.65;;;21.20;;
36839;SDS011;24406;51.640;9.566;2024-03-06T20:43:03;35.70;;;22.13;;
36839;SDS011;24406;51.640;9.566;2024-03-06T20:48:09;31.77;;;21.45;;
36839;SDS011;24406;51.640;9.566;2024-03-06T20:53:20;33.72;;;21.70;;
36839;SDS011;24406;51.640;9.566;2024-03-06T20:58:31;33.03;;;23.50;;
36839;SDS011;24406;51.640;9.566;2024-03-06T21:03:33;34.83;;;22.65;;
36839;SDS011;24406;51.640;9.566;2024-03-06T21:08:40;34.17;;;23.08;;
36839;SDS011;24406;51.640;9.566;2024-03-06T21:13:54;30.08;;;21.73;;
36839;SDS011;24406;51.640;9.566;2024-03-06T21:18:56;29.02;;;22.45;;
36839;SDS011;24406;51.640;9.566;2024-03-06T21:23:59;31.50;;;21.92;;
36839;SDS011;24406;51.640;9.566;2024-03-06T21:29:10;30.33;;;20.75;;
36839;SDS011;24406;51.640;9.566;2024-03-06T21:34:12;30.40;;;21.42;;
36839;SDS011;24406;51.640;9.566;2024-03-06T21:39:17;27.67;;;21.00;;
36839;SDS011;24406;51.640;9.566;2024-03-06T21:44:29;29.17;;;20.95;;
36839;SDS011;24406;51.640;9.566;2024-03-06T21:49:32;28.27;;;20.77;;
36839;SDS011;24406;51.640;9.566;2024-03-06T21:54:35;31.80;;;21.00;;
36839;SDS011;24406;51.640;9.566;2024-03-06T21:59:38;30.20;;;21.00;;
36839;SDS011;24406;51.640;9.566;2024-03-06T22:04:40;29.02;;;22.00;;
36839;SDS011;24406;51.640;9.566;2024-03-06T22:09:43;30.40;;;20.40;;
36839;SDS011;24406;51.640;9.566;2024-03-06T22:14:48;26.15;;;18.95;;
36839;SDS011;24406;51.640;9.566;2024-03-06T22:19:50;29.38;;;21.52;;
36839;SDS011;24406;51.640;9.566;2024-03-06T22:24:51;27.77;;;21.55;;
36839;SDS011;24406;51.640;9.566;2024-03-06T22:29:55;30.48;;;20.92;;
36839;SDS011;24406;51.640;9.566;2024-03-06T22:34:56;27.52;;;20.45;;
36839;SDS011;24406;51.640;9.566;2024-03-06T22:39:58;33.50;;;23.35;;
36839;SDS011;24406;51.640;9.566;2024-03-06T22:45:01;28.30;;;21.80;;
36839;SDS011;24406;51.640;9.566;2024-03-06T22:50:03;34.38;;;23.38;;
36839;SDS011;24406;51.640;9.566;2024-03-06T22:55:05;29.45;;;22.67;;
36839;SDS011;24406;51.640;9.566;2024-03-06T23:00:10;36.35;;;23.90;;
36839;SDS011;24406;51.640;9.566;2024-03-06T23:05:28;31.70;;;22.42;;
36839;SDS011;24406;51.640;9.566;2024-03-06T23:10:30;29.10;;;21.17;;
36839;SDS011;24406;51.640;9.566;2024-03-06T23:15:33;29.38;;;21.20;;
36839;SDS011;24406;51.640;9.566;2024-03-06T23:20:36;30.83;;;22.63;;
36839;SDS011;24406;51.640;9.566;2024-03-06T23:25:38;29.05;;;21.95;;
36839;SDS011;24406;51.640;9.566;2024-03-06T23:30:42;31.40;;;21.95;;
36839;SDS011;24406;51.640;9.566;2024-03-06T23:35:44;27.88;;;20.65;;
36839;SDS011;24406;51.640;9.566;2024-03-06T23:40:45;26.27;;;20.33;;
36839;SDS011;24406;51.640;9.566;2024-03-06T23:45:48;30.98;;;20.30;;
36839;SDS011;24406;51.640;9.566;2024-03-06T23:50:50;28.63;;;20.40;;
36839;SDS011;24406;51.640;9.566;2024-03-06T23:55:52;28.98;;;21.50;;
